Rosemount, Minnesota
Current Conditions -  °F | °C
As of 2:50 PM on Friday 21 Nov 2014 (Local Time) from KSGS Reporting Station
Clear Clear  
Wind Chill: 16°   Ceiling: Unl
Heat Index: 27°   Visibility: 10mi
Dew Point: 16°   Wind: 14mph
Humidity: 64%   Direction: 160°SSE
Pressure: 30.05"   Gusts: 21mph
Location:  44.74°N, 93.12°W
Report Text: KSGS 212050Z AUTO 16012G18KT 10SM CLR M03/M09 A3005 RMK AO2 T10281088
Loading
Personal Weather Stations






























Interactive Weather Map New forecast layout! Learn more

10-Day Weather Forecast

Advertisements
Track Severe Weather on mobile